Gopher, South Dakota
Current Conditions -  °F | °C
As of 3:52 AM on Sunday 26 Oct 2014 (Local Time) from KMBG Reporting Station
Clear Clear  
Wind Chill: 51°   Ceiling: Unl
Heat Index: 51°   Visibility: 10mi
Dew Point: 34°   Wind: 18mph
Humidity: 52%   Direction: 140°SE
Pressure: 29.77"   Gusts: NA
Location:  45.5528°N, 100.336°W
Report Text: KMBG 260852Z AUTO 14016KT 10SM CLR 11/01 A2977 RMK AO2 SLP080 T01060011 58029
Loading
Personal Weather Stations






























Interactive Weather Map
Tropical Storm Tracking
New forecast layout! Learn more

10-Day Weather Forecast

Advertisements
Track Severe Weather on mobile